createdAt,value
2023-05-21T00:02:13.099Z,17.96
2023-05-21T00:17:04.777Z,17.83
2023-05-21T00:31:56.177Z,17.77
2023-05-21T00:46:47.840Z,17.69
2023-05-21T01:01:39.382Z,17.52
2023-05-21T01:16:31.221Z,17.43
2023-05-21T01:31:28.652Z,17.38
2023-05-21T01:46:24.510Z,17.35
2023-05-21T02:01:16.235Z,17.29
2023-05-21T02:16:13.146Z,17.17
2023-05-21T02:31:07.964Z,17.05
2023-05-21T02:45:59.334Z,16.92
2023-05-21T03:00:57.117Z,16.79
2023-05-21T03:15:47.772Z,16.65
2023-05-21T03:30:39.910Z,16.48
2023-05-21T03:45:32.883Z,16.43
2023-05-21T04:15:17.718Z,16.32
2023-05-21T04:30:10.255Z,16.32
2023-05-21T04:45:02.793Z,16.39
2023-05-21T06:44:03.171Z,18.33
2023-05-21T06:58:55.829Z,18.79
2023-05-21T07:13:49.177Z,19.27
2023-05-21T07:28:42.753Z,19.74
2023-05-21T07:43:36.292Z,20.09
2023-05-21T07:58:28.655Z,20.44
2023-05-21T08:13:21.605Z,20.73
2023-05-21T08:28:14.964Z,20.79
2023-05-21T08:43:08.691Z,20.89
2023-05-21T08:58:01.640Z,21.02
2023-05-21T09:12:55.312Z,21.41
2023-05-21T09:27:50.890Z,21.83
2023-05-21T09:42:49.893Z,22.16
2023-05-21T09:57:45.741Z,22.55
2023-05-21T10:12:39.876Z,23.16
2023-05-21T10:27:37.142Z,23.85
2023-05-21T10:42:33.974Z,24.27
2023-05-21T10:57:48.010Z,24.51
2023-05-21T11:13:07.580Z,24.69
2023-05-21T11:28:05.488Z,24.67
2023-05-21T11:42:57.991Z,24.79
2023-05-21T11:57:50.732Z,24.99
2023-05-21T12:12:54.069Z,25.46
2023-05-21T12:27:35.984Z,25.45
2023-05-21T12:42:28.320Z,25.45
2023-05-21T12:57:21.262Z,25.51
2023-05-21T13:12:13.813Z,25.72
2023-05-21T13:27:06.373Z,25.74
2023-05-21T13:41:59.296Z,25.77
2023-05-21T13:56:52.263Z,25.90
2023-05-21T14:11:44.528Z,25.82
2023-05-21T14:26:37.559Z,25.90
2023-05-21T14:41:31.550Z,26.23
2023-05-21T14:56:24.850Z,26.44
2023-05-21T15:11:19.791Z,27.22
2023-05-21T15:26:16.450Z,28.22
2023-05-21T15:41:09.564Z,28.44
2023-05-21T15:56:02.322Z,28.27
2023-05-21T16:25:48.827Z,27.79
2023-05-21T16:55:33.483Z,27.16
2023-05-21T17:25:18.551Z,26.74
2023-05-21T17:40:12.558Z,27.10
2023-05-21T18:09:58.630Z,26.30
2023-05-21T19:24:15.797Z,23.73
2023-05-21T19:53:59.623Z,22.90
2023-05-21T20:08:51.320Z,22.55
2023-05-21T20:38:56.072Z,22.00
2023-05-21T20:53:48.600Z,21.70
2023-05-21T21:08:41.047Z,21.43
2023-05-21T21:23:32.962Z,21.23
2023-05-21T21:38:24.876Z,20.93
2023-05-21T21:53:16.390Z,20.72
2023-05-21T22:08:09.330Z,20.58
2023-05-21T22:23:02.485Z,20.26
2023-05-21T22:37:54.002Z,19.94
2023-05-21T22:52:46.558Z,19.78
2023-05-21T23:07:38.658Z,19.48
2023-05-21T23:22:30.789Z,19.20
2023-05-21T23:37:22.929Z,19.05
2023-05-21T23:52:14.017Z,18.89
